createdAt,value
2017-12-26T00:00:03.324Z,1004.05
2017-12-26T00:05:03.361Z,1004.12
2017-12-26T00:10:02.983Z,1004
2017-12-26T00:15:03.524Z,1003.95
2017-12-26T00:20:03.004Z,1003.98
2017-12-26T00:25:03.604Z,1003.7
2017-12-26T00:30:03.339Z,1003.74
2017-12-26T00:35:02.758Z,1003.52
2017-12-26T00:40:03.327Z,1003.49
2017-12-26T00:45:02.847Z,1003.47
2017-12-26T00:50:03.427Z,1003.45
2017-12-26T00:55:02.975Z,1003.37
2017-12-26T01:00:03.359Z,1002.9
2017-12-26T01:05:02.984Z,1002.69
2017-12-26T01:10:03.482Z,1002.61
2017-12-26T01:15:03.016Z,1002.51
2017-12-26T01:20:02.725Z,1002.42
2017-12-26T01:25:03.207Z,1002.54
2017-12-26T01:30:02.805Z,1002.37
2017-12-26T01:35:03.316Z,1002.13
2017-12-26T01:40:02.844Z,1002.09
2017-12-26T01:45:03.448Z,1002.07
2017-12-26T01:50:02.886Z,1001.91
2017-12-26T01:55:03.434Z,1001.88
2017-12-26T02:00:02.794Z,1001.42
2017-12-26T02:05:03.248Z,1001.47
2017-12-26T02:10:02.888Z,1001.25
2017-12-26T02:15:03.331Z,1001.05
2017-12-26T02:20:02.803Z,1000.9
2017-12-26T02:25:03.352Z,1000.79
2017-12-26T02:30:02.790Z,1000.62
2017-12-26T02:35:03.416Z,1000.37
2017-12-26T02:40:02.904Z,1000.37
2017-12-26T02:45:03.336Z,1000.14
2017-12-26T02:50:02.718Z,1000.09
2017-12-26T02:55:03.274Z,999.9
2017-12-26T03:00:02.721Z,999.72
2017-12-26T03:05:03.067Z,999.64
2017-12-26T03:10:02.737Z,999.38
2017-12-26T03:15:03.574Z,999.36
2017-12-26T03:20:03.076Z,999.01
2017-12-26T03:25:03.626Z,998.64
2017-12-26T03:30:03.039Z,998.39
2017-12-26T03:35:03.623Z,998.51
2017-12-26T03:40:03.246Z,998.47
2017-12-26T03:45:03.630Z,998.6
2017-12-26T03:55:03.618Z,998.41
2017-12-26T04:00:03.233Z,998.37
2017-12-26T04:05:02.730Z,998.27
2017-12-26T04:10:03.211Z,998.09
2017-12-26T04:15:03.609Z,998.01
2017-12-26T04:20:03.092Z,997.72
2017-12-26T04:25:03.682Z,997.72
2017-12-26T04:30:03.147Z,997.42
2017-12-26T04:35:03.615Z,997.22
2017-12-26T04:40:03.231Z,997.32
2017-12-26T04:45:02.760Z,997.38
2017-12-26T04:50:03.243Z,997.4
2017-12-26T04:55:02.670Z,997.06
2017-12-26T05:00:03.089Z,996.98
2017-12-26T05:05:03.449Z,997.1
2017-12-26T05:10:02.959Z,996.78
2017-12-26T05:15:03.325Z,996.79
2017-12-26T05:20:02.922Z,996.65
2017-12-26T05:25:03.527Z,996.57
2017-12-26T05:30:03.090Z,996.63
2017-12-26T05:35:03.641Z,996.6
2017-12-26T05:40:03.276Z,996.45
2017-12-26T05:45:02.873Z,996.55
2017-12-26T05:50:03.504Z,996.82
2017-12-26T05:55:02.907Z,996.8
2017-12-26T06:00:03.388Z,996.57
2017-12-26T06:05:02.891Z,996.94
2017-12-26T06:10:03.548Z,996.79
2017-12-26T06:15:02.980Z,997.02
2017-12-26T06:20:03.587Z,997.08
2017-12-26T06:25:02.982Z,997
2017-12-26T06:30:03.479Z,997.3
2017-12-26T06:35:03.115Z,997.17
2017-12-26T06:40:02.680Z,997.23
2017-12-26T06:45:03.247Z,997.26
2017-12-26T06:50:02.786Z,997.38
2017-12-26T06:55:03.170Z,997.46
2017-12-26T07:00:03.668Z,997.29
2017-12-26T07:05:03.089Z,997.38
2017-12-26T07:10:03.663Z,997.44
2017-12-26T07:15:03.045Z,997.62
2017-12-26T07:20:03.595Z,997.58
2017-12-26T07:25:03.027Z,997.67
2017-12-26T07:30:03.587Z,997.59
2017-12-26T07:35:03.159Z,997.59
2017-12-26T07:40:02.712Z,997.45
2017-12-26T07:45:03.120Z,997.56
2017-12-26T07:50:02.630Z,997.51
2017-12-26T07:55:03.255Z,997.77
2017-12-26T08:00:02.845Z,997.83
2017-12-26T08:05:03.512Z,997.84
2017-12-26T08:10:03.124Z,998.04
2017-12-26T08:15:03.537Z,998.15
2017-12-26T08:20:03.080Z,998.48
2017-12-26T08:25:03.649Z,998.22
2017-12-26T08:30:03.207Z,998.51
2017-12-26T08:35:02.801Z,998.35
2017-12-26T08:40:03.423Z,998.26
2017-12-26T08:45:02.875Z,998.34
2017-12-26T08:50:03.281Z,998.3
2017-12-26T08:55:02.778Z,998.48
2017-12-26T09:00:03.276Z,998.57
2017-12-26T09:05:02.829Z,998.73
2017-12-26T09:10:03.322Z,998.77
2017-12-26T09:15:03.138Z,998.81
2017-12-26T09:20:03.580Z,998.84
2017-12-26T09:25:03.094Z,998.61
2017-12-26T09:30:03.598Z,998.63
2017-12-26T09:35:03.059Z,998.82
2017-12-26T09:40:03.445Z,998.9
2017-12-26T09:45:02.997Z,998.91
2017-12-26T09:50:03.670Z,998.89
2017-12-26T09:55:03.282Z,999.09
2017-12-26T10:00:03.659Z,999.06
2017-12-26T10:05:03.253Z,999.1
2017-12-26T10:10:02.764Z,998.97
2017-12-26T10:15:03.256Z,999.07
2017-12-26T10:20:02.835Z,999.1
2017-12-26T10:25:03.435Z,999.07
2017-12-26T10:30:02.800Z,999.18
2017-12-26T10:35:03.295Z,998.9
2017-12-26T10:40:02.794Z,998.94
2017-12-26T10:45:03.229Z,998.97
2017-12-26T10:50:02.729Z,999.04
2017-12-26T10:55:03.278Z,999.03
2017-12-26T11:00:02.844Z,998.88
2017-12-26T11:05:03.482Z,999.26
2017-12-26T11:10:03.212Z,998.94
2017-12-26T11:15:03.683Z,999.07
2017-12-26T11:20:03.185Z,999.1
2017-12-26T11:25:03.626Z,999.18
2017-12-26T11:30:03.065Z,998.93
2017-12-26T11:35:03.679Z,999.09
2017-12-26T11:40:03.312Z,999.18
2017-12-26T11:45:02.777Z,999.09
2017-12-26T11:50:03.360Z,999.26
2017-12-26T11:55:02.939Z,999.04
2017-12-26T12:00:03.520Z,999.2
2017-12-26T12:05:02.953Z,999.08
2017-12-26T12:10:03.408Z,999.02
2017-12-26T12:15:02.823Z,999.11
2017-12-26T12:20:03.265Z,999.04
2017-12-26T12:25:02.906Z,999.1
2017-12-26T12:30:03.299Z,999.31
2017-12-26T12:35:02.933Z,999
2017-12-26T12:40:03.388Z,999.03
2017-12-26T12:45:02.926Z,999.09
2017-12-26T12:50:03.498Z,999.09
2017-12-26T12:55:03.102Z,999.04
2017-12-26T13:00:03.687Z,999.01
2017-12-26T13:05:03.132Z,999.01
2017-12-26T13:10:02.743Z,998.85
2017-12-26T13:15:03.303Z,998.96
2017-12-26T13:20:02.733Z,999.02
2017-12-26T13:25:03.568Z,998.99
2017-12-26T13:30:03.133Z,998.94
2017-12-26T13:35:02.780Z,998.86
2017-12-26T13:40:03.249Z,998.89
2017-12-26T13:45:02.812Z,998.97
2017-12-26T13:50:03.366Z,999.04
2017-12-26T13:55:02.802Z,998.99
2017-12-26T14:00:03.268Z,998.95
2017-12-26T14:05:02.937Z,998.99
2017-12-26T14:10:03.411Z,998.93
2017-12-26T14:15:02.992Z,998.9
2017-12-26T14:20:03.645Z,999
2017-12-26T14:25:03.003Z,999.01
2017-12-26T14:30:03.530Z,999.04
2017-12-26T14:35:02.933Z,999.08
2017-12-26T14:40:03.589Z,999.08
2017-12-26T14:45:03.215Z,999.08
2017-12-26T14:50:02.746Z,999.18
2017-12-26T14:55:03.237Z,999
2017-12-26T15:00:02.748Z,999.06
2017-12-26T15:05:03.324Z,999.15
2017-12-26T15:10:02.897Z,999.09
2017-12-26T15:15:03.439Z,999.04
2017-12-26T15:20:02.863Z,999.17
2017-12-26T15:25:03.367Z,999.08
2017-12-26T15:30:03.036Z,999.09
2017-12-26T15:35:03.616Z,999.01
2017-12-26T15:40:03.236Z,998.9
2017-12-26T15:45:02.866Z,998.94
2017-12-26T15:50:03.383Z,998.99
2017-12-26T15:55:02.767Z,999.06
2017-12-26T16:00:03.414Z,999.12
2017-12-26T16:05:02.993Z,999.01
2017-12-26T16:10:03.479Z,998.96
2017-12-26T16:15:02.860Z,998.91
2017-12-26T16:20:03.449Z,998.92
2017-12-26T16:25:02.810Z,998.88
2017-12-26T16:30:03.331Z,998.76
2017-12-26T16:35:02.871Z,998.78
2017-12-26T16:40:03.536Z,998.85
2017-12-26T16:45:03.132Z,998.56
2017-12-26T16:50:03.635Z,998.69
2017-12-26T16:55:03.239Z,998.68
2017-12-26T17:00:02.853Z,998.48
2017-12-26T17:05:03.579Z,998.61
2017-12-26T17:10:03.122Z,998.51
2017-12-26T17:15:03.600Z,998.5
2017-12-26T17:20:03.120Z,998.46
2017-12-26T17:25:02.712Z,998.49
2017-12-26T17:30:03.093Z,998.47
2017-12-26T17:35:03.532Z,998.48
2017-12-26T17:40:03.001Z,998.58
2017-12-26T17:45:03.464Z,998.49
2017-12-26T17:50:02.952Z,998.49
2017-12-26T17:55:03.502Z,998.52
2017-12-26T18:00:02.908Z,998.42
2017-12-26T18:05:03.364Z,998.44
2017-12-26T18:10:02.990Z,998.35
2017-12-26T18:15:03.623Z,998.33
2017-12-26T18:20:03.245Z,998.2
2017-12-26T18:25:03.653Z,998.08
2017-12-26T18:30:03.009Z,997.98
2017-12-26T18:35:03.443Z,997.87
2017-12-26T18:40:02.948Z,997.78
2017-12-26T18:45:03.462Z,997.73
2017-12-26T18:50:02.903Z,997.67
2017-12-26T18:55:03.503Z,997.64
2017-12-26T19:00:03.145Z,997.56
2017-12-26T19:05:02.716Z,997.35
2017-12-26T19:10:03.325Z,997.34
2017-12-26T19:15:02.829Z,997.3
2017-12-26T19:20:03.342Z,997.23
2017-12-26T19:25:02.920Z,997.17
2017-12-26T19:30:03.534Z,997.01
2017-12-26T19:35:03.158Z,996.97
2017-12-26T19:40:03.104Z,996.83
2017-12-26T19:45:02.733Z,996.74
2017-12-26T19:50:03.317Z,996.68
2017-12-26T19:55:02.849Z,996.59
2017-12-26T20:00:03.407Z,996.59
2017-12-26T20:05:03.159Z,996.51
2017-12-26T20:10:02.796Z,996.33
2017-12-26T20:15:03.264Z,996.27
2017-12-26T20:20:02.808Z,996.17
2017-12-26T20:25:03.333Z,996.11
2017-12-26T20:30:03.041Z,995.97
2017-12-26T20:35:03.611Z,995.91
2017-12-26T20:40:03.150Z,995.87
2017-12-26T20:45:02.671Z,995.76
2017-12-26T20:50:03.176Z,995.58
2017-12-26T20:55:03.656Z,995.5
2017-12-26T21:00:03.211Z,995.52
2017-12-26T21:05:02.709Z,995.4
2017-12-26T21:10:03.291Z,995.22
2017-12-26T21:15:02.750Z,995.23
2017-12-26T21:20:03.313Z,995.13
2017-12-26T21:25:02.852Z,995.07
2017-12-26T21:30:03.471Z,995.08
2017-12-26T21:35:02.961Z,994.87
2017-12-26T21:40:03.574Z,994.79
2017-12-26T21:45:03.410Z,994.75
2017-12-26T21:50:02.907Z,994.59
2017-12-26T21:55:03.599Z,994.45
2017-12-26T22:00:03.394Z,994.32
2017-12-26T22:05:02.816Z,994.26
2017-12-26T22:10:03.397Z,994.15
2017-12-26T22:15:02.991Z,993.97
2017-12-26T22:20:03.669Z,993.96
2017-12-26T22:25:03.225Z,993.98
2017-12-26T22:30:02.901Z,993.86
2017-12-26T22:35:03.423Z,993.66
2017-12-26T22:40:02.952Z,993.59
2017-12-26T22:45:03.562Z,993.45
2017-12-26T22:50:03.091Z,993.45
2017-12-26T22:55:03.551Z,993.36
2017-12-26T23:00:03.251Z,993.14
2017-12-26T23:05:02.943Z,992.96
2017-12-26T23:10:03.622Z,992.83
2017-12-26T23:15:03.228Z,992.71
2017-12-26T23:20:02.935Z,992.49
2017-12-26T23:25:03.472Z,992.4
2017-12-26T23:30:03.097Z,992.31
2017-12-26T23:35:02.705Z,992.23
2017-12-26T23:40:03.259Z,992.03
2017-12-26T23:45:02.888Z,991.92
2017-12-26T23:50:03.457Z,991.73
2017-12-26T23:55:02.861Z,991.73
